createdAt,value
2022-12-24T00:01:37.468Z,9.80
2022-12-24T00:04:06.308Z,9.80
2022-12-24T00:06:34.759Z,9.80
2022-12-24T00:09:03.166Z,9.70
2022-12-24T00:11:31.522Z,9.60
2022-12-24T00:13:59.937Z,9.60
2022-12-24T00:16:29.772Z,9.60
2022-12-24T00:18:58.190Z,9.50
2022-12-24T00:21:26.480Z,9.40
2022-12-24T00:23:55.021Z,9.40
2022-12-24T00:26:23.463Z,9.40
2022-12-24T00:28:52.246Z,9.40
2022-12-24T00:31:20.933Z,9.30
2022-12-24T00:33:50.688Z,9.30
2022-12-24T00:36:20.731Z,9.30
2022-12-24T00:38:49.369Z,9.30
2022-12-24T00:41:29.051Z,9.30
2022-12-24T00:44:00.489Z,9.30
2022-12-24T00:46:30.160Z,9.30
2022-12-24T00:49:00.005Z,9.30
2022-12-24T00:51:28.700Z,9.30
2022-12-24T00:53:57.336Z,9.40
2022-12-24T00:56:25.821Z,9.30
2022-12-24T00:58:55.783Z,9.30
2022-12-24T01:01:25.051Z,9.30
2022-12-24T01:04:14.411Z,9.40
2022-12-24T01:06:43.374Z,9.40
2022-12-24T01:09:12.141Z,9.40
2022-12-24T01:11:40.609Z,9.40
2022-12-24T01:14:08.971Z,9.40
2022-12-24T01:16:37.258Z,9.40
2022-12-24T01:19:05.930Z,9.40
2022-12-24T01:21:34.254Z,9.40
2022-12-24T01:24:04.234Z,9.40
2022-12-24T01:26:32.563Z,9.30
2022-12-24T01:29:01.236Z,9.40
2022-12-24T01:31:29.524Z,9.40
2022-12-24T01:33:58.167Z,9.30
2022-12-24T01:36:26.453Z,9.30
2022-12-24T01:38:54.734Z,9.30
2022-12-24T01:41:50.639Z,9.30
2022-12-24T01:44:35.169Z,9.20
2022-12-24T01:47:10.544Z,9.20
2022-12-24T01:49:44.017Z,9.20
2022-12-24T01:52:16.390Z,9.20
2022-12-24T01:54:49.670Z,9.20
2022-12-24T01:57:23.937Z,9.10
2022-12-24T01:59:57.981Z,9.20
2022-12-24T02:02:26.991Z,9.10
2022-12-24T02:05:03.431Z,9.10
2022-12-24T02:07:31.882Z,9.10
2022-12-24T02:10:02.300Z,9.00
2022-12-24T02:12:36.527Z,9.00
2022-12-24T02:15:06.629Z,8.90
2022-12-24T02:17:45.066Z,9.00
2022-12-24T02:21:07.744Z,8.90
2022-12-24T02:24:07.729Z,8.90
2022-12-24T02:27:15.950Z,8.90
2022-12-24T02:30:21.337Z,8.80
2022-12-24T02:33:19.691Z,8.90
2022-12-24T02:35:55.503Z,8.90
2022-12-24T02:38:29.630Z,8.90
2022-12-24T02:41:03.530Z,8.90
2022-12-24T02:43:36.847Z,8.90
2022-12-24T02:46:13.705Z,8.90
2022-12-24T02:48:44.886Z,8.90
2022-12-24T02:51:13.918Z,8.90
2022-12-24T02:53:42.741Z,8.90
2022-12-24T02:56:37.514Z,9.00
2022-12-24T02:59:35.374Z,9.00
2022-12-24T03:02:14.177Z,9.10
2022-12-24T03:04:50.053Z,9.20
2022-12-24T03:07:23.675Z,9.30
2022-12-24T03:10:16.605Z,9.30
2022-12-24T03:12:48.750Z,9.30
2022-12-24T03:15:21.323Z,9.40
2022-12-24T03:17:54.725Z,9.40
2022-12-24T03:20:28.339Z,9.40
2022-12-24T03:22:56.866Z,9.40
2022-12-24T03:25:27.567Z,9.40
2022-12-24T03:27:57.692Z,9.40
2022-12-24T03:30:28.104Z,9.40
2022-12-24T03:32:57.989Z,9.30
2022-12-24T03:35:26.681Z,9.30
2022-12-24T03:37:55.028Z,9.30
2022-12-24T03:40:23.362Z,9.30
2022-12-24T03:42:51.932Z,9.30
2022-12-24T03:45:20.376Z,9.30
2022-12-24T03:47:48.763Z,9.30
2022-12-24T03:50:18.576Z,9.40
2022-12-24T03:52:46.934Z,9.40
2022-12-24T03:55:15.327Z,9.30
2022-12-24T03:57:43.613Z,9.40
2022-12-24T04:00:13.573Z,9.40
2022-12-24T04:02:42.154Z,9.50
2022-12-24T04:05:15.210Z,9.50
2022-12-24T04:07:45.303Z,9.50
2022-12-24T04:10:14.025Z,9.50
2022-12-24T04:12:42.595Z,9.50
2022-12-24T04:15:12.379Z,9.50
2022-12-24T04:17:40.791Z,9.60
2022-12-24T04:20:10.846Z,9.50
2022-12-24T04:22:39.129Z,9.50
2022-12-24T04:25:10.854Z,9.50
2022-12-24T04:27:39.204Z,9.50
2022-12-24T04:30:09.569Z,9.50
2022-12-24T04:32:37.874Z,9.50
2022-12-24T04:35:07.149Z,9.50
2022-12-24T04:37:35.839Z,9.50
2022-12-24T04:40:06.183Z,9.60
2022-12-24T04:42:35.873Z,9.60
2022-12-24T04:45:04.377Z,9.60
2022-12-24T04:47:32.660Z,9.60
2022-12-24T04:50:01.624Z,9.50
2022-12-24T04:52:30.554Z,9.50
2022-12-24T04:54:58.931Z,9.50
2022-12-24T04:57:27.261Z,9.60
2022-12-24T04:59:56.937Z,9.60
2022-12-24T05:02:25.465Z,9.60
2022-12-24T05:04:53.889Z,9.60
2022-12-24T05:07:22.775Z,9.60
2022-12-24T05:09:51.085Z,9.60
2022-12-24T05:12:19.426Z,9.60
2022-12-24T05:14:47.876Z,9.60
2022-12-24T05:17:17.947Z,9.60
2022-12-24T05:19:46.243Z,9.50
2022-12-24T05:22:31.803Z,9.60
2022-12-24T05:25:17.299Z,9.50
2022-12-24T05:27:51.088Z,9.50
2022-12-24T05:30:20.089Z,9.50
2022-12-24T05:32:49.929Z,9.50
2022-12-24T05:35:18.287Z,9.50
2022-12-24T05:37:46.667Z,9.50
2022-12-24T05:40:15.310Z,9.50
2022-12-24T05:42:43.815Z,9.50
2022-12-24T05:45:12.456Z,9.50
2022-12-24T05:47:43.384Z,9.50
2022-12-24T05:50:13.982Z,9.50
2022-12-24T05:52:42.368Z,9.50
2022-12-24T05:55:11.501Z,9.50
2022-12-24T05:57:41.601Z,9.50
2022-12-24T06:00:11.580Z,9.50
2022-12-24T06:02:39.935Z,9.40
2022-12-24T06:05:09.188Z,9.50
2022-12-24T06:07:40.040Z,9.50
2022-12-24T06:10:10.395Z,9.50
2022-12-24T06:12:38.931Z,9.50
2022-12-24T06:15:09.150Z,9.50
2022-12-24T06:17:37.417Z,9.50
2022-12-24T06:20:06.880Z,9.50
2022-12-24T06:22:35.238Z,9.60
2022-12-24T06:25:05.624Z,9.50
2022-12-24T06:27:34.139Z,9.50
2022-12-24T06:30:02.489Z,9.50
2022-12-24T06:32:30.805Z,9.50
2022-12-24T06:34:59.175Z,9.40
2022-12-24T06:37:27.429Z,9.40
2022-12-24T06:39:55.678Z,9.40
2022-12-24T06:42:25.568Z,9.50
2022-12-24T06:44:53.834Z,9.40
2022-12-24T06:47:22.226Z,9.40
2022-12-24T06:49:50.488Z,9.40
2022-12-24T06:52:18.819Z,9.40
2022-12-24T06:54:47.222Z,9.30
2022-12-24T06:57:15.529Z,9.30
2022-12-24T06:59:45.217Z,9.30
2022-12-24T07:02:13.526Z,9.30
2022-12-24T07:04:41.999Z,9.20
2022-12-24T07:07:10.280Z,9.20
2022-12-24T07:09:38.761Z,9.20
2022-12-24T07:12:07.352Z,9.20
2022-12-24T07:14:36.438Z,9.20
2022-12-24T07:17:06.176Z,9.10
2022-12-24T07:19:35.273Z,9.10
2022-12-24T07:22:03.880Z,9.10
2022-12-24T07:24:32.145Z,9.10
2022-12-24T07:27:00.490Z,9.10
2022-12-24T07:29:28.788Z,9.10
2022-12-24T07:31:57.199Z,9.20
2022-12-24T07:34:26.986Z,9.20
2022-12-24T07:36:55.487Z,9.20
2022-12-24T07:39:24.259Z,9.20
2022-12-24T07:41:53.788Z,9.20
2022-12-24T07:44:22.402Z,9.20
2022-12-24T07:46:51.219Z,9.20
2022-12-24T07:49:20.310Z,9.20
2022-12-24T07:51:50.714Z,9.30
2022-12-24T07:54:19.118Z,9.20
2022-12-24T07:56:47.486Z,9.20
2022-12-24T07:59:15.850Z,9.30
2022-12-24T08:01:44.558Z,9.30
2022-12-24T08:04:13.341Z,9.40
2022-12-24T08:06:41.872Z,9.40
2022-12-24T08:09:11.524Z,9.40
2022-12-24T08:11:40.390Z,9.40
2022-12-24T08:14:10.814Z,9.40
2022-12-24T08:16:39.297Z,9.50
2022-12-24T08:19:07.650Z,9.50
2022-12-24T08:21:36.017Z,9.50
2022-12-24T08:24:04.647Z,9.50
2022-12-24T08:26:34.400Z,9.50
2022-12-24T08:29:03.599Z,9.50
2022-12-24T08:31:36.458Z,9.50
2022-12-24T08:34:05.740Z,9.50
2022-12-24T08:36:34.141Z,9.50
2022-12-24T08:39:03.740Z,9.60
2022-12-24T08:41:34.036Z,9.60
2022-12-24T08:44:02.706Z,9.60
2022-12-24T08:46:31.226Z,9.70
2022-12-24T08:48:59.550Z,9.70
2022-12-24T08:51:27.960Z,9.70
2022-12-24T08:53:56.313Z,9.70
2022-12-24T08:56:24.674Z,9.70
2022-12-24T08:58:54.390Z,9.80
2022-12-24T09:01:23.475Z,9.80
2022-12-24T09:03:51.868Z,9.80
2022-12-24T09:06:20.281Z,9.80
2022-12-24T09:08:48.576Z,9.70
2022-12-24T09:11:20.518Z,9.80
2022-12-24T09:13:48.905Z,9.80
2022-12-24T09:16:18.642Z,9.80
2022-12-24T09:18:47.012Z,9.80
2022-12-24T09:21:17.605Z,9.80
2022-12-24T09:23:49.167Z,9.80
2022-12-24T09:26:20.601Z,9.80
2022-12-24T09:28:49.538Z,9.80
2022-12-24T09:31:19.633Z,9.80
2022-12-24T09:33:49.964Z,9.80
2022-12-24T09:36:19.045Z,9.80
2022-12-24T09:38:47.651Z,9.90
2022-12-24T09:41:26.098Z,9.80
2022-12-24T09:44:00.375Z,9.90
2022-12-24T09:46:33.633Z,10.00
2022-12-24T09:49:07.834Z,10.00
2022-12-24T09:51:42.441Z,10.00
2022-12-24T09:54:18.114Z,10.10
2022-12-24T09:56:48.674Z,10.10
2022-12-24T09:59:19.995Z,10.10
2022-12-24T10:01:50.946Z,10.10
2022-12-24T10:04:21.309Z,10.10
2022-12-24T10:06:55.803Z,10.20
2022-12-24T10:09:34.171Z,10.20
2022-12-24T10:12:11.536Z,10.20
2022-12-24T10:14:59.760Z,10.20
2022-12-24T10:17:46.739Z,10.10
2022-12-24T10:20:37.572Z,10.10
2022-12-24T10:23:16.872Z,10.10
2022-12-24T10:25:52.436Z,10.10
2022-12-24T10:28:42.033Z,10.10
2022-12-24T10:31:11.462Z,10.10
2022-12-24T10:33:44.829Z,10.10
2022-12-24T10:36:19.161Z,10.10
2022-12-24T10:38:48.266Z,10.10
2022-12-24T10:41:17.714Z,10.10
2022-12-24T10:43:47.527Z,10.10
2022-12-24T10:46:23.195Z,10.10
2022-12-24T10:48:59.262Z,10.20
2022-12-24T10:51:35.717Z,10.20
2022-12-24T10:54:13.065Z,10.20
2022-12-24T10:56:44.748Z,10.20
2022-12-24T10:59:27.999Z,10.20
2022-12-24T11:01:57.718Z,10.20
2022-12-24T11:04:29.751Z,10.20
2022-12-24T11:07:01.039Z,10.20
2022-12-24T11:09:32.532Z,10.30
2022-12-24T11:12:09.462Z,10.30
2022-12-24T11:14:40.510Z,10.40
2022-12-24T11:17:11.828Z,10.40
2022-12-24T11:19:41.619Z,10.60
2022-12-24T11:22:20.563Z,10.90
2022-12-24T11:25:01.580Z,11.10
2022-12-24T11:27:36.211Z,11.30
2022-12-24T11:30:30.920Z,11.40
2022-12-24T11:33:21.551Z,11.40
2022-12-24T11:37:22.375Z,11.40
2022-12-24T11:39:53.520Z,11.40
2022-12-24T11:42:27.750Z,11.30
2022-12-24T11:44:58.002Z,11.30
2022-12-24T11:47:37.546Z,11.30
2022-12-24T11:50:29.225Z,11.40
2022-12-24T11:53:32.075Z,11.40
2022-12-24T11:56:02.830Z,11.50
2022-12-24T11:58:41.301Z,11.70
2022-12-24T12:01:22.834Z,11.80
2022-12-24T12:03:55.143Z,11.90
2022-12-24T12:06:34.602Z,11.90
2022-12-24T12:09:12.125Z,12.00
2022-12-24T12:11:41.880Z,11.90
2022-12-24T12:14:20.281Z,11.80
2022-12-24T12:17:04.689Z,11.70
2022-12-24T12:19:41.995Z,11.70
2022-12-24T12:22:22.409Z,11.60
2022-12-24T12:24:55.923Z,11.70
2022-12-24T12:27:32.918Z,11.60
2022-12-24T12:30:06.271Z,11.60
2022-12-24T12:32:47.526Z,11.50
2022-12-24T12:35:25.295Z,11.50
2022-12-24T12:38:02.069Z,11.40
2022-12-24T12:41:05.276Z,11.40
2022-12-24T12:44:01.335Z,11.40
2022-12-24T12:46:42.494Z,11.40
2022-12-24T12:49:27.014Z,11.40
2022-12-24T12:52:04.920Z,11.30
2022-12-24T12:54:55.341Z,11.40
2022-12-24T12:57:30.158Z,11.30
2022-12-24T13:00:05.564Z,11.30
2022-12-24T13:02:58.046Z,11.30
2022-12-24T13:07:02.242Z,11.30
2022-12-24T13:09:52.976Z,11.40
2022-12-24T13:12:43.092Z,11.40
2022-12-24T13:15:54.029Z,11.50
2022-12-24T13:18:42.655Z,11.40
2022-12-24T13:21:19.583Z,11.50
2022-12-24T13:23:49.730Z,11.60
2022-12-24T13:26:18.654Z,11.60
2022-12-24T13:28:47.018Z,11.70
2022-12-24T13:31:29.864Z,11.60
2022-12-24T13:34:03.752Z,11.50
2022-12-24T13:37:14.468Z,11.50
2022-12-24T13:40:18.265Z,11.50
2022-12-24T13:43:07.585Z,11.50
2022-12-24T13:45:50.778Z,11.50
2022-12-24T13:48:34.577Z,11.30
2022-12-24T13:51:24.626Z,11.30
2022-12-24T13:54:00.478Z,11.20
2022-12-24T13:56:33.699Z,11.20
2022-12-24T13:59:19.877Z,11.10
2022-12-24T14:01:48.670Z,11.10
2022-12-24T14:04:28.415Z,11.00
2022-12-24T14:07:00.163Z,10.90
2022-12-24T14:09:30.039Z,10.90
2022-12-24T14:12:48.314Z,10.80
2022-12-24T14:16:03.144Z,10.80
2022-12-24T14:19:28.926Z,10.80
2022-12-24T14:22:05.055Z,10.80
2022-12-24T14:24:36.598Z,10.70
2022-12-24T14:27:15.102Z,10.70
2022-12-24T14:29:51.794Z,10.60
2022-12-24T14:32:20.517Z,10.60
2022-12-24T14:34:48.970Z,10.60
2022-12-24T14:37:18.769Z,10.60
2022-12-24T14:39:56.869Z,10.50
2022-12-24T14:42:41.605Z,10.50
2022-12-24T14:45:26.994Z,10.50
2022-12-24T14:48:05.408Z,10.40
2022-12-24T14:50:59.834Z,10.40
2022-12-24T14:53:49.284Z,10.30
2022-12-24T14:56:20.870Z,10.20
2022-12-24T14:58:49.927Z,10.20
2022-12-24T15:01:26.221Z,10.20
2022-12-24T15:04:07.003Z,10.10
2022-12-24T15:06:39.453Z,10.10
2022-12-24T15:09:15.310Z,10.00
2022-12-24T15:11:46.069Z,9.90
2022-12-24T15:14:15.223Z,9.80
2022-12-24T15:16:54.198Z,9.80
2022-12-24T15:19:28.401Z,9.70
2022-12-24T15:21:57.375Z,9.70
2022-12-24T15:24:28.873Z,9.60
2022-12-24T15:26:57.848Z,9.50
2022-12-24T15:29:28.569Z,9.50
2022-12-24T15:32:01.271Z,9.40
2022-12-24T15:34:33.068Z,9.30
2022-12-24T15:37:07.787Z,9.30
2022-12-24T15:39:36.186Z,9.20
2022-12-24T15:42:18.599Z,9.10
2022-12-24T15:44:59.551Z,9.10
2022-12-24T15:47:38.042Z,9.00
2022-12-24T15:50:16.490Z,8.90
2022-12-24T15:52:47.223Z,8.80
2022-12-24T15:55:30.941Z,8.80
2022-12-24T15:57:59.348Z,8.80
2022-12-24T16:00:31.231Z,8.80
2022-12-24T16:03:19.161Z,8.70
2022-12-24T16:05:48.032Z,8.70
2022-12-24T16:08:33.873Z,8.70
2022-12-24T16:11:13.394Z,8.70
2022-12-24T16:13:44.800Z,8.70
2022-12-24T16:16:16.830Z,8.60
2022-12-24T16:18:53.916Z,8.50
2022-12-24T16:21:26.459Z,8.50
2022-12-24T16:23:57.251Z,8.50
2022-12-24T16:26:25.778Z,8.40
2022-12-24T16:28:56.161Z,8.30
2022-12-24T16:31:33.919Z,8.20
2022-12-24T16:34:05.837Z,8.20
2022-12-24T16:36:34.666Z,8.20
2022-12-24T16:39:20.457Z,8.00
2022-12-24T16:42:06.385Z,7.90
2022-12-24T16:44:34.680Z,7.80
2022-12-24T16:47:03.085Z,7.70
2022-12-24T16:49:32.721Z,7.70
2022-12-24T16:52:01.052Z,7.70
2022-12-24T16:54:30.154Z,7.70
2022-12-24T16:56:58.660Z,7.80
2022-12-24T16:59:27.163Z,7.80
2022-12-24T17:01:55.519Z,7.90
2022-12-24T17:04:26.978Z,8.00
2022-12-24T17:06:56.695Z,8.00
2022-12-24T17:09:25.506Z,8.10
2022-12-24T17:11:54.068Z,8.00
2022-12-24T17:14:22.451Z,8.10
2022-12-24T17:16:50.875Z,8.20
2022-12-24T17:19:19.454Z,8.20
2022-12-24T17:21:47.872Z,8.30
2022-12-24T17:24:17.602Z,8.40
2022-12-24T17:26:45.988Z,8.40
2022-12-24T17:29:15.146Z,8.40
2022-12-24T17:31:43.477Z,8.40
2022-12-24T17:34:11.934Z,8.40
2022-12-24T17:36:40.382Z,8.40
2022-12-24T17:39:08.724Z,8.40
2022-12-24T17:41:38.552Z,8.50
2022-12-24T17:44:08.994Z,8.40
2022-12-24T17:46:37.515Z,8.40
2022-12-24T17:49:05.887Z,8.40
2022-12-24T17:51:35.858Z,8.40
2022-12-24T17:54:07.365Z,8.40
2022-12-24T17:56:37.147Z,8.30
2022-12-24T17:59:07.920Z,8.20
2022-12-24T18:01:36.279Z,8.20
2022-12-24T18:04:05.339Z,8.20
2022-12-24T18:06:33.729Z,8.20
2022-12-24T18:09:02.049Z,8.30
2022-12-24T18:11:33.275Z,8.30
2022-12-24T18:14:05.290Z,8.20
2022-12-24T18:16:36.445Z,8.20
2022-12-24T18:19:08.281Z,8.20
2022-12-24T18:21:36.601Z,8.20
2022-12-24T18:24:06.097Z,8.30
2022-12-24T18:26:34.641Z,8.20
2022-12-24T18:29:05.766Z,8.20
2022-12-24T18:31:34.573Z,8.20
2022-12-24T18:34:05.050Z,8.10
2022-12-24T18:36:33.942Z,8.00
2022-12-24T18:39:02.656Z,7.90
2022-12-24T18:41:32.172Z,7.80
2022-12-24T18:44:00.832Z,7.90
2022-12-24T18:46:34.010Z,7.70
2022-12-24T18:49:03.039Z,7.60
2022-12-24T18:51:34.369Z,7.60
2022-12-24T18:54:03.452Z,7.50
2022-12-24T18:56:32.824Z,7.50
2022-12-24T18:59:03.286Z,7.40
2022-12-24T19:01:35.785Z,7.40
2022-12-24T19:04:04.752Z,7.40
2022-12-24T19:06:33.230Z,7.60
2022-12-24T19:09:02.145Z,7.60
2022-12-24T19:11:33.566Z,7.70
2022-12-24T19:14:03.488Z,7.70
2022-12-24T19:16:38.955Z,7.80
2022-12-24T19:19:10.755Z,7.80
2022-12-24T19:21:39.068Z,7.90
2022-12-24T19:24:10.541Z,7.90
2022-12-24T19:26:39.118Z,7.90
2022-12-24T19:29:07.591Z,7.90
2022-12-24T19:31:37.345Z,7.90
2022-12-24T19:34:05.725Z,8.00
2022-12-24T19:36:35.145Z,8.10
2022-12-24T19:39:03.464Z,8.10
2022-12-24T19:41:32.551Z,8.10
2022-12-24T19:44:02.552Z,8.10
2022-12-24T19:46:33.699Z,8.20
2022-12-24T19:49:06.254Z,8.20
2022-12-24T19:51:35.999Z,8.20
2022-12-24T19:54:06.088Z,8.30
2022-12-24T19:56:35.021Z,8.40
2022-12-24T19:59:05.261Z,8.40
2022-12-24T20:01:36.307Z,8.40
2022-12-24T20:04:06.534Z,8.40
2022-12-24T20:06:36.563Z,8.40
2022-12-24T20:09:07.418Z,8.50
2022-12-24T20:11:36.720Z,8.50
2022-12-24T20:14:07.322Z,8.50
2022-12-24T20:16:36.593Z,8.50
2022-12-24T20:19:08.020Z,8.50
2022-12-24T20:21:38.034Z,8.50
2022-12-24T20:24:07.454Z,8.60
2022-12-24T20:26:36.254Z,8.50
2022-12-24T20:29:06.041Z,8.50
2022-12-24T20:31:35.005Z,8.50
2022-12-24T20:34:07.445Z,8.60
2022-12-24T20:36:37.977Z,8.60
2022-12-24T20:39:07.992Z,8.60
2022-12-24T20:41:37.265Z,8.60
2022-12-24T20:44:05.652Z,8.60
2022-12-24T20:46:34.269Z,8.60
2022-12-24T20:49:02.649Z,8.70
2022-12-24T20:51:32.336Z,8.70
2022-12-24T20:54:02.060Z,8.70
2022-12-24T20:56:31.868Z,8.70
2022-12-24T20:59:01.963Z,8.70
2022-12-24T21:01:30.931Z,8.70
2022-12-24T21:04:07.671Z,8.70
2022-12-24T21:06:37.933Z,8.70
2022-12-24T21:09:07.021Z,8.70
2022-12-24T21:11:53.193Z,8.70
2022-12-24T21:14:24.608Z,8.70
2022-12-24T21:16:55.259Z,8.70
2022-12-24T21:19:26.251Z,8.70
2022-12-24T21:21:56.199Z,8.70
2022-12-24T21:24:24.463Z,8.70
2022-12-24T21:26:52.839Z,8.80
2022-12-24T21:29:21.214Z,8.80
2022-12-24T21:31:49.636Z,8.80
2022-12-24T21:34:18.023Z,8.70
2022-12-24T21:36:46.320Z,8.80
2022-12-24T21:39:16.499Z,8.80
2022-12-24T21:41:44.794Z,8.80
2022-12-24T21:44:13.171Z,8.80
2022-12-24T21:46:41.698Z,8.80
2022-12-24T21:49:29.521Z,8.90
2022-12-24T21:51:57.793Z,8.90
2022-12-24T21:54:30.499Z,9.00
2022-12-24T21:57:19.323Z,9.00
2022-12-24T21:59:49.843Z,9.00
2022-12-24T22:02:18.590Z,9.00
2022-12-24T22:04:47.260Z,9.00
2022-12-24T22:07:40.028Z,9.00
2022-12-24T22:10:29.259Z,9.00
2022-12-24T22:12:59.774Z,8.90
2022-12-24T22:15:28.375Z,9.00
2022-12-24T22:17:56.683Z,9.00
2022-12-24T22:20:25.007Z,9.00
2022-12-24T22:22:54.115Z,9.00
2022-12-24T22:25:23.791Z,9.00
2022-12-24T22:27:52.348Z,9.00
2022-12-24T22:30:20.900Z,9.00
2022-12-24T22:32:49.292Z,9.10
2022-12-24T22:35:17.978Z,9.10
2022-12-24T22:37:46.430Z,9.10
2022-12-24T22:40:15.243Z,9.10
2022-12-24T22:42:44.872Z,9.10
2022-12-24T22:45:18.519Z,9.00
2022-12-24T22:47:48.561Z,9.10
2022-12-24T22:50:17.054Z,9.00
2022-12-24T22:52:45.538Z,9.00
2022-12-24T22:55:13.814Z,9.00
2022-12-24T22:57:42.063Z,9.00
2022-12-24T23:00:18.247Z,9.10
2022-12-24T23:02:46.684Z,9.10
2022-12-24T23:05:16.350Z,9.00
2022-12-24T23:07:44.741Z,9.00
2022-12-24T23:10:13.067Z,9.00
2022-12-24T23:12:58.970Z,8.90
2022-12-24T23:15:28.722Z,8.90
2022-12-24T23:17:57.092Z,8.90
2022-12-24T23:20:25.378Z,8.90
2022-12-24T23:22:53.725Z,8.90
2022-12-24T23:25:21.992Z,8.80
2022-12-24T23:27:50.506Z,8.80
2022-12-24T23:30:19.820Z,8.80
2022-12-24T23:32:49.541Z,8.80
2022-12-24T23:35:18.232Z,8.70
2022-12-24T23:37:46.601Z,8.80
2022-12-24T23:40:15.352Z,8.80
2022-12-24T23:42:43.648Z,8.80
2022-12-24T23:45:12.434Z,8.80
2022-12-24T23:47:41.796Z,8.80
2022-12-24T23:50:12.546Z,8.80
2022-12-24T23:52:43.562Z,8.80
2022-12-24T23:55:11.648Z,8.80
2022-12-24T23:57:39.925Z,8.80
